Time;durP1;ratioP1;P1;durP2;ratioP2;P2;SDS_P1;SDS_P2;PMS_P1;PMS_P2;Temp;Humidity;BMP_temperature;BMP_pressure;BME280_temperature;BME280_humidity;BME280_pressure;Samples;Min_cycle;Max_cycle;Signal;HPM_P1;HPM_P2
2022/08/21 00:01:02;;;;;;;0.00;0.00;;;19.30;99.90;;;;;;5080641;28;20206;-67
2022/08/21 00:03:29;;;;;;;0.00;0.00;;;19.30;99.90;;;;;;5075327;28;20244;-67
2022/08/21 00:05:57;;;;;;;0.00;0.00;;;19.30;99.90;;;;;;5077134;28;20194;-67
2022/08/21 00:08:24;;;;;;;0.00;0.00;;;19.30;99.90;;;;;;5075451;28;20206;-67
2022/08/21 00:10:51;;;;;;;0.00;0.00;;;19.30;99.90;;;;;;5055912;28;20235;-68
2022/08/21 00:13:20;;;;;;;0.00;0.00;;;19.20;99.90;;;;;;5087523;28;20231;-67
2022/08/21 00:15:48;;;;;;;0.00;0.00;;;19.20;99.90;;;;;;5072200;28;20199;-68
2022/08/21 00:18:16;;;;;;;0.00;0.00;;;19.20;99.90;;;;;;5080346;28;20225;-69
2022/08/21 00:20:46;;;;;;;0.00;0.00;;;19.20;99.90;;;;;;5064759;28;20204;-69
2022/08/21 00:23:14;;;;;;;0.00;0.00;;;19.20;99.90;;;;;;5067252;28;20227;-69
2022/08/21 00:25:43;;;;;;;0.00;0.00;;;19.20;99.90;;;;;;5080813;28;20209;-69
2022/08/21 00:28:11;;;;;;;0.00;0.00;;;19.20;99.90;;;;;;5071347;28;20221;-69
2022/08/21 00:30:39;;;;;;;0.00;0.00;;;19.20;99.90;;;;;;5075967;28;20235;-69
2022/08/21 00:33:08;;;;;;;0.00;0.00;;;19.30;99.90;;;;;;5058631;28;20725;-69
2022/08/21 00:35:39;;;;;;;0.00;0.00;;;19.30;99.90;;;;;;5070885;28;20210;-69
2022/08/21 00:38:08;;;;;;;0.00;0.00;;;19.30;99.90;;;;;;5070852;28;20702;-69
2022/08/21 00:40:40;;;;;;;0.00;0.00;;;19.30;99.90;;;;;;5081681;28;20209;-69
2022/08/21 00:43:09;;;;;;;0.00;0.00;;;19.30;99.90;;;;;;5067677;28;20190;-69
2022/08/21 00:45:36;;;;;;;0.00;0.00;;;19.30;99.90;;;;;;5077586;28;20201;-69
2022/08/21 00:48:04;;;;;;;0.00;0.00;;;19.40;99.90;;;;;;5061866;28;20287;-69
2022/08/21 00:50:35;;;;;;;0.00;0.00;;;19.40;99.90;;;;;;5061957;28;20222;-69
2022/08/21 00:53:03;;;;;;;0.00;0.00;;;19.40;99.90;;;;;;5063991;28;20227;-69
2022/08/21 00:55:32;;;;;;;0.00;0.00;;;19.40;99.90;;;;;;5074017;28;20210;-69
2022/08/21 00:58:02;;;;;;;0.00;0.00;;;19.40;99.90;;;;;;5069151;28;20249;-69
2022/08/21 01:00:33;;;;;;;0.00;0.00;;;19.40;99.90;;;;;;5067671;28;20202;-69
2022/08/21 01:03:05;;;;;;;0.00;0.00;;;19.40;99.90;;;;;;5072761;28;20233;-69
2022/08/21 01:05:33;;;;;;;0.00;0.00;;;19.40;99.90;;;;;;5073610;28;20210;-69
2022/08/21 01:08:00;;;;;;;0.00;0.00;;;19.40;99.90;;;;;;5071024;28;20219;-69
2022/08/21 01:10:27;;;;;;;0.00;0.00;;;19.40;99.90;;;;;;5074723;28;20199;-69
2022/08/21 01:12:57;;;;;;;0.00;0.00;;;19.40;99.90;;;;;;5090339;28;20219;-69
2022/08/21 01:15:30;;;;;;;0.00;0.00;;;19.40;99.90;;;;;;5077696;28;20199;-69
2022/08/21 01:17:57;;;;;;;0.00;0.00;;;19.40;99.90;;;;;;5082182;28;20219;-69
2022/08/21 01:20:24;;;;;;;0.00;0.00;;;19.30;99.90;;;;;;5074900;28;20238;-69
2022/08/21 01:22:52;;;;;;;0.00;0.00;;;19.30;99.90;;;;;;5062287;28;20227;-69
2022/08/21 01:25:20;;;;;;;0.00;0.00;;;19.30;99.90;;;;;;5072944;28;20199;-69
2022/08/21 01:27:48;;;;;;;0.00;0.00;;;19.30;99.90;;;;;;5071353;28;20218;-69
2022/08/21 01:30:19;;;;;;;0.00;0.00;;;19.30;99.90;;;;;;5073727;28;20581;-69
2022/08/21 01:32:47;;;;;;;0.00;0.00;;;19.30;99.90;;;;;;5064870;28;20286;-69
2022/08/21 01:35:16;;;;;;;0.00;0.00;;;19.30;99.90;;;;;;5066271;28;20208;-68
2022/08/21 01:37:44;;;;;;;0.00;0.00;;;19.30;99.90;;;;;;5073624;28;20226;-69
2022/08/21 01:40:14;;;;;;;0.00;0.00;;;19.30;99.90;;;;;;5073464;28;20194;-69
2022/08/21 01:42:40;;;;;;;0.00;0.00;;;19.30;99.90;;;;;;5072320;28;20259;-69
2022/08/21 01:45:09;;;;;;;0.00;0.00;;;19.30;99.90;;;;;;5077676;28;20202;-69
2022/08/21 01:47:37;;;;;;;0.00;0.00;;;19.40;99.90;;;;;;5065177;28;20214;-69
2022/08/21 01:50:07;;;;;;;0.00;0.00;;;19.40;99.90;;;;;;5070537;28;20228;-69
2022/08/21 01:52:33;;;;;;;0.00;0.00;;;19.40;99.90;;;;;;5069180;28;20745;-69
2022/08/21 01:55:01;;;;;;;0.00;0.00;;;19.40;99.90;;;;;;5066176;28;20221;-69
2022/08/21 01:57:29;;;;;;;0.00;0.00;;;19.40;99.90;;;;;;5074976;28;20229;-69
2022/08/21 01:59:56;;;;;;;0.00;0.00;;;19.40;99.90;;;;;;5072354;28;20210;-69
2022/08/21 02:02:24;;;;;;;0.00;0.00;;;19.50;99.90;;;;;;5075946;28;20570;-69
2022/08/21 02:04:51;;;;;;;0.00;0.00;;;19.40;99.90;;;;;;5072332;28;20301;-69
2022/08/21 02:07:18;;;;;;;0.00;0.00;;;19.40;99.90;;;;;;5074465;28;20303;-69
2022/08/21 02:09:45;;;;;;;0.00;0.00;;;;;;;;;;5079924;28;20739;-69
2022/08/21 02:12:13;;;;;;;0.00;0.00;;;19.20;99.90;;;;;;5070580;28;20234;-69
2022/08/21 02:14:41;;;;;;;0.00;0.00;;;19.20;99.90;;;;;;5072044;28;20197;-69
2022/08/21 02:17:08;;;;;;;0.00;0.00;;;19.10;99.90;;;;;;5063079;28;20301;-70
2022/08/21 02:19:36;;;;;;;0.00;0.00;;;19.10;99.90;;;;;;5080372;28;20244;-70
2022/08/21 02:22:03;;;;;;;0.00;0.00;;;19.10;99.90;;;;;;5065881;28;20203;-70
2022/08/21 02:24:31;;;;;;;0.00;0.00;;;19.10;99.90;;;;;;5073161;28;20209;-70
2022/08/21 02:26:59;;;;;;;0.00;0.00;;;19.10;99.90;;;;;;5071410;28;20202;-70
2022/08/21 02:29:26;;;;;;;0.00;0.00;;;19.00;99.90;;;;;;5074913;28;20210;-70
2022/08/21 02:31:55;;;;;;;0.00;0.00;;;19.00;99.90;;;;;;5068748;28;20199;-70
2022/08/21 02:34:22;;;;;;;0.00;0.00;;;19.00;99.90;;;;;;5058232;28;20206;-70
2022/08/21 02:36:49;;;;;;;0.00;0.00;;;19.00;99.90;;;;;;5066197;28;20195;-69
2022/08/21 02:39:16;;;;;;;0.00;0.00;;;19.00;99.90;;;;;;5079268;28;20220;-70
2022/08/21 02:41:44;;;;;;;0.00;0.00;;;;;;;;;;5065206;28;20207;-70
2022/08/21 02:44:11;;;;;;;0.00;0.00;;;;;;;;;;5078045;28;20335;-70
2022/08/21 02:46:38;;;;;;;0.00;0.00;;;19.00;99.90;;;;;;5070725;28;20198;-70
2022/08/21 02:49:07;;;;;;;0.00;0.00;;;19.00;99.90;;;;;;5071348;28;20233;-70
2022/08/21 02:51:34;;;;;;;0.00;0.00;;;18.90;99.90;;;;;;5067451;28;20255;-70
2022/08/21 02:54:01;;;;;;;0.00;0.00;;;;;;;;;;5071027;28;20211;-70
2022/08/21 02:56:28;;;;;;;0.00;0.00;;;18.80;99.90;;;;;;5064140;28;20597;-70
2022/08/21 02:58:56;;;;;;;0.00;0.00;;;;;;;;;;5068325;28;20219;-70
2022/08/21 03:01:23;;;;;;;0.00;0.00;;;;;;;;;;5072965;28;20251;-70
2022/08/21 03:03:51;;;;;;;0.00;0.00;;;;;;;;;;5059864;28;20287;-69
2022/08/21 03:06:21;;;;;;;0.00;0.00;;;;;;;;;;5077421;28;20198;-69
2022/08/21 03:08:48;;;;;;;0.00;0.00;;;;;;;;;;5068961;28;20699;-69
2022/08/21 03:11:17;;;;;;;0.00;0.00;;;;;;;;;;5080329;28;20205;-69
2022/08/21 03:13:44;;;;;;;0.00;0.00;;;;;;;;;;5066861;28;20210;-69
2022/08/21 03:16:12;;;;;;;0.00;0.00;;;;;;;;;;5064613;28;20209;-69
2022/08/21 03:18:39;;;;;;;0.00;0.00;;;;;;;;;;5066126;28;20226;-69
2022/08/21 03:21:07;;;;;;;0.00;0.00;;;;;;;;;;5069757;28;20207;-69
2022/08/21 03:23:36;;;;;;;0.00;0.00;;;;;;;;;;5073353;28;20195;-69
2022/08/21 03:26:03;;;;;;;0.00;0.00;;;;;;;;;;5069244;28;20194;-69
2022/08/21 03:28:31;;;;;;;0.00;0.00;;;;;;;;;;5066420;28;20228;-69
2022/08/21 03:30:58;;;;;;;0.00;0.00;;;;;;;;;;5075228;28;20198;-69
2022/08/21 03:33:25;;;;;;;0.00;0.00;;;;;;;;;;5062349;28;20218;-69
2022/08/21 03:35:57;;;;;;;0.00;0.00;;;;;;;;;;5072012;28;20194;-69
2022/08/21 03:38:25;;;;;;;0.00;0.00;;;;;;;;;;5063652;28;20214;-69
2022/08/21 03:40:54;;;;;;;0.00;0.00;;;;;;;;;;5072664;28;20195;-69
2022/08/21 03:43:21;;;;;;;0.00;0.00;;;;;;;;;;5072819;28;20190;-69
2022/08/21 03:45:49;;;;;;;0.00;0.00;;;;;;;;;;5076863;28;20203;-69
2022/08/21 03:48:16;;;;;;;0.00;0.00;;;;;;;;;;5068474;28;20256;-69
2022/08/21 03:50:46;;;;;;;0.00;0.00;;;;;;;;;;5067070;28;20661;-70
2022/08/21 03:53:14;;;;;;;0.00;0.00;;;;;;;;;;5067361;28;20293;-69
2022/08/21 03:55:42;;;;;;;0.00;0.00;;;;;;;;;;5065638;28;20204;-69
2022/08/21 03:58:10;;;;;;;0.00;0.00;;;;;;;;;;5069200;28;20211;-69
2022/08/21 04:00:38;;;;;;;0.00;0.00;;;;;;;;;;5069991;28;20210;-69
2022/08/21 04:03:06;;;;;;;0.00;0.00;;;;;;;;;;5068014;28;20253;-69
2022/08/21 04:05:33;;;;;;;0.00;0.00;;;;;;;;;;5077227;28;20191;-69
2022/08/21 04:08:01;;;;;;;0.00;0.00;;;;;;;;;;5076996;28;20250;-69
2022/08/21 04:10:30;;;;;;;0.00;0.00;;;;;;;;;;5061524;28;20203;-70
2022/08/21 04:12:58;;;;;;;0.00;0.00;;;;;;;;;;5077381;28;20278;-69
2022/08/21 04:15:28;;;;;;;0.00;0.00;;;;;;;;;;5079446;28;20213;-70
2022/08/21 04:17:55;;;;;;;0.00;0.00;;;;;;;;;;5081524;28;20232;-70
2022/08/21 04:20:24;;;;;;;0.00;0.00;;;;;;;;;;5079048;28;20641;-69
2022/08/21 04:22:52;;;;;;;0.00;0.00;;;;;;;;;;5067274;28;20195;-70
2022/08/21 04:25:19;;;;;;;0.00;0.00;;;;;;;;;;5075356;28;20244;-70
2022/08/21 04:27:47;;;;;;;0.00;0.00;;;;;;;;;;5072545;28;20230;-69
2022/08/21 04:30:15;;;;;;;0.00;0.00;;;;;;;;;;5075416;28;20217;-69
2022/08/21 04:32:44;;;;;;;0.00;0.00;;;;;;;;;;5068737;28;20225;-69
2022/08/21 04:35:12;;;;;;;0.00;0.00;;;;;;;;;;5059827;28;20202;-69
2022/08/21 04:37:40;;;;;;;0.00;0.00;;;;;;;;;;5076647;28;20222;-70
2022/08/21 04:40:09;;;;;;;0.00;0.00;;;;;;;;;;5082232;28;20204;-69
2022/08/21 04:42:43;;;;;;;0.00;0.00;;;;;;;;;;5070553;28;20213;-69
2022/08/21 04:45:11;;;;;;;0.00;0.00;;;;;;;;;;5076479;28;20198;-69
2022/08/21 04:47:38;;;;;;;0.00;0.00;;;;;;;;;;5061893;28;20219;-69
2022/08/21 04:50:07;;;;;;;0.00;0.00;;;;;;;;;;5069888;28;20187;-68
2022/08/21 04:52:35;;;;;;;0.00;0.00;;;;;;;;;;5073872;28;20206;-69
2022/08/21 04:55:02;;;;;;;0.00;0.00;;;;;;;;;;5062869;28;20225;-68
2022/08/21 04:57:30;;;;;;;0.00;0.00;;;;;;;;;;5069776;28;20237;-69
2022/08/21 04:59:58;;;;;;;0.00;0.00;;;;;;;;;;5065148;28;20214;-69
2022/08/21 05:02:26;;;;;;;0.00;0.00;;;;;;;;;;5077642;28;20235;-69
2022/08/21 05:04:55;;;;;;;0.00;0.00;;;;;;;;;;5079700;28;20193;-69
2022/08/21 05:07:27;;;;;;;0.00;0.00;;;;;;;;;;5065998;28;20229;-69
2022/08/21 05:09:55;;;;;;;0.00;0.00;;;;;;;;;;5078826;28;20236;-69
2022/08/21 05:12:23;;;;;;;0.00;0.00;;;;;;;;;;5080777;28;20675;-69
2022/08/21 05:14:51;;;;;;;0.00;0.00;;;;;;;;;;5075255;28;20253;-70
2022/08/21 05:17:18;;;;;;;0.00;0.00;;;;;;;;;;5078103;28;20218;-70
2022/08/21 05:19:45;;;;;;;0.00;0.00;;;;;;;;;;5076294;28;20220;-69
2022/08/21 05:22:12;;;;;;;0.00;0.00;;;;;;;;;;5084631;28;20205;-69
2022/08/21 05:24:41;;;;;;;0.00;0.00;;;;;;;;;;5074168;28;20293;-69
2022/08/21 05:27:08;;;;;;;0.00;0.00;;;;;;;;;;5076571;28;20194;-69
2022/08/21 05:29:35;;;;;;;0.00;0.00;;;;;;;;;;5073713;28;20208;-69
2022/08/21 05:32:09;;;;;;;0.00;0.00;;;;;;;;;;5077411;28;20285;-69
2022/08/21 05:34:36;;;;;;;0.00;0.00;;;;;;;;;;5057516;28;20268;-70
2022/08/21 05:37:04;;;;;;;0.00;0.00;;;;;;;;;;5076961;28;20214;-69
2022/08/21 05:39:31;;;;;;;0.00;0.00;;;;;;;;;;5073577;28;20296;-69
2022/08/21 05:41:59;;;;;;;0.00;0.00;;;;;;;;;;5064490;28;20203;-69
2022/08/21 05:44:27;;;;;;;0.00;0.00;;;;;;;;;;5073381;28;20206;-69
2022/08/21 05:46:54;;;;;;;0.00;0.00;;;;;;;;;;5072683;28;20252;-68
2022/08/21 05:49:22;;;;;;;0.00;0.00;;;;;;;;;;5066600;28;20296;-69
2022/08/21 05:51:49;;;;;;;0.00;0.00;;;;;;;;;;5070596;28;20211;-68
2022/08/21 05:54:16;;;;;;;0.00;0.00;;;;;;;;;;5065036;28;20323;-68
2022/08/21 05:56:44;;;;;;;0.00;0.00;;;;;;;;;;5068302;28;20304;-68
2022/08/21 05:59:13;;;;;;;0.00;0.00;;;;;;;;;;5065281;28;20237;-68
2022/08/21 06:01:41;;;;;;;0.00;0.00;;;;;;;;;;5074107;28;20209;-68
2022/08/21 06:04:08;;;;;;;0.00;0.00;;;;;;;;;;5074626;28;20224;-68
2022/08/21 06:06:35;;;;;;;0.00;0.00;;;;;;;;;;5077702;28;20204;-68
2022/08/21 06:09:03;;;;;;;0.00;0.00;;;;;;;;;;5066584;28;20223;-68
2022/08/21 06:11:30;;;;;;;0.00;0.00;;;;;;;;;;5068391;28;20212;-69
2022/08/21 06:13:58;;;;;;;0.00;0.00;;;;;;;;;;5071175;28;20219;-69
2022/08/21 06:16:27;;;;;;;0.00;0.00;;;;;;;;;;5077081;28;20284;-69
2022/08/21 06:18:55;;;;;;;0.00;0.00;;;;;;;;;;5072735;28;20218;-69
2022/08/21 06:21:22;;;;;;;0.00;0.00;;;;;;;;;;5068220;28;20260;-68
2022/08/21 06:23:49;;;;;;;0.00;0.00;;;;;;;;;;5071294;28;20277;-69
2022/08/21 06:26:17;;;;;;;0.00;0.00;;;;;;;;;;5068975;28;20198;-68
2022/08/21 06:28:44;;;;;;;0.00;0.00;;;;;;;;;;5063596;28;20222;-68
2022/08/21 06:31:12;;;;;;;0.00;0.00;;;;;;;;;;5073244;28;20209;-69
2022/08/21 06:33:41;;;;;;;0.00;0.00;;;;;;;;;;5060002;28;20219;-68
2022/08/21 06:36:09;;;;;;;0.00;0.00;;;;;;;;;;5078041;28;20205;-69
2022/08/21 06:38:36;;;;;;;0.00;0.00;;;;;;;;;;5073456;28;20699;-69
2022/08/21 06:41:04;;;;;;;0.00;0.00;;;;;;;;;;5067708;28;20214;-68
2022/08/21 06:43:31;;;;;;;0.00;0.00;;;;;;;;;;5073613;28;20227;-69
2022/08/21 06:45:58;;;;;;;0.00;0.00;;;;;;;;;;5057252;28;20638;-69
2022/08/21 06:48:26;;;;;;;0.00;0.00;;;;;;;;;;5066002;28;20235;-69
2022/08/21 06:50:55;;;;;;;0.00;0.00;;;;;;;;;;5061340;28;20244;-69
2022/08/21 06:53:22;;;;;;;0.00;0.00;;;;;;;;;;5069133;28;20186;-69
2022/08/21 06:55:50;;;;;;;0.00;0.00;;;;;;;;;;5065971;28;20205;-69
2022/08/21 06:58:19;;;;;;;0.00;0.00;;;;;;;;;;5075641;28;20249;-69
2022/08/21 07:00:48;;;;;;;0.00;0.00;;;;;;;;;;5071029;28;20591;-69
2022/08/21 07:03:19;;;;;;;0.00;0.00;;;;;;;;;;5074775;28;20206;-69
2022/08/21 07:05:47;;;;;;;0.00;0.00;;;;;;;;;;5079471;28;20198;-69
2022/08/21 07:08:16;;;;;;;0.00;0.00;;;;;;;;;;5075031;28;20232;-69
2022/08/21 07:10:43;;;;;;;0.00;0.00;;;20.90;99.90;;;;;;5072732;28;20205;-69
2022/08/21 07:13:10;;;;;;;0.00;0.00;;;22.50;99.90;;;;;;5070136;28;20291;-69
2022/08/21 07:15:37;;;;;;;0.00;0.00;;;22.60;99.90;;;;;;5072586;28;20229;-69
2022/08/21 07:18:05;;;;;;;0.00;0.00;;;22.80;99.90;;;;;;5075773;28;20268;-69
2022/08/21 07:20:32;;;;;;;0.00;0.00;;;22.90;99.90;;;;;;5070631;28;20198;-69
2022/08/21 07:23:03;;;;;;;0.00;0.00;;;23.00;99.90;;;;;;5065727;28;20207;-70
2022/08/21 07:25:32;;;;;;;0.00;0.00;;;23.20;99.90;;;;;;5071481;28;20211;-69
2022/08/21 07:27:59;;;;;;;0.00;0.00;;;23.20;99.90;;;;;;5075484;28;20218;-69
2022/08/21 07:30:27;;;;;;;0.00;0.00;;;23.30;99.90;;;;;;5074227;28;20202;-69
2022/08/21 07:32:54;;;;;;;0.00;0.00;;;23.40;99.90;;;;;;5062938;28;20290;-69
2022/08/21 07:35:22;;;;;;;0.00;0.00;;;23.50;99.90;;;;;;5064573;28;20229;-69
2022/08/21 07:37:49;;;;;;;0.00;0.00;;;23.50;99.90;;;;;;5063532;28;20251;-69
2022/08/21 07:40:18;;;;;;;0.00;0.00;;;23.60;99.90;;;;;;5071308;28;20267;-69
2022/08/21 07:42:49;;;;;;;0.00;0.00;;;23.80;99.90;;;;;;5068572;28;20202;-69
2022/08/21 07:45:16;;;;;;;0.00;0.00;;;23.80;99.90;;;;;;5073182;28;20229;-69
2022/08/21 07:47:44;;;;;;;0.00;0.00;;;23.90;99.90;;;;;;5073464;28;20225;-69
2022/08/21 07:50:12;;;;;;;0.00;0.00;;;24.00;99.90;;;;;;5083208;28;20206;-69
2022/08/21 07:52:39;;;;;;;0.00;0.00;;;24.00;99.90;;;;;;5072271;28;20283;-69
2022/08/21 07:55:08;;;;;;;0.00;0.00;;;24.00;99.90;;;;;;5080862;28;20218;-69
2022/08/21 07:57:35;;;;;;;0.00;0.00;;;24.00;99.90;;;;;;5074438;28;20325;-69
2022/08/21 08:00:05;;;;;;;0.00;0.00;;;24.00;99.90;;;;;;5079019;28;20207;-70
2022/08/21 08:02:39;;;;;;;0.00;0.00;;;24.00;99.90;;;;;;5084379;28;20198;-69
2022/08/21 08:05:10;;;;;;;0.00;0.00;;;24.10;99.90;;;;;;5078315;28;20216;-68
2022/08/21 08:07:38;;;;;;;0.00;0.00;;;24.10;99.90;;;;;;5079402;28;20324;-68
2022/08/21 08:10:08;;;;;;;0.00;0.00;;;24.20;99.90;;;;;;5076379;28;20236;-68
2022/08/21 08:12:36;;;;;;;0.00;0.00;;;24.20;99.90;;;;;;5078464;28;20296;-69
2022/08/21 08:15:07;;;;;;;0.00;0.00;;;24.30;99.90;;;;;;5080914;28;20242;-68
2022/08/21 08:17:34;;;;;;;0.00;0.00;;;24.30;99.90;;;;;;5082573;28;20236;-68
2022/08/21 08:20:02;;;;;;;0.00;0.00;;;24.30;99.90;;;;;;5078365;28;20202;-68
2022/08/21 08:22:29;;;;;;;0.00;0.00;;;24.40;99.90;;;;;;5078021;28;20198;-68
2022/08/21 08:24:56;;;;;;;0.00;0.00;;;24.50;99.90;;;;;;5081201;28;20194;-69
2022/08/21 08:27:23;;;;;;;0.00;0.00;;;24.60;99.90;;;;;;5076024;28;20766;-68
2022/08/21 08:29:52;;;;;;;0.00;0.00;;;24.70;99.90;;;;;;5075817;28;20294;-69
2022/08/21 08:32:21;;;;;;;0.00;0.00;;;24.80;99.90;;;;;;5077821;28;20199;-68
2022/08/21 08:34:51;;;;;;;0.00;0.00;;;24.90;99.90;;;;;;5076719;28;20222;-68
2022/08/21 08:37:19;;;;;;;0.00;0.00;;;25.00;99.90;;;;;;5069325;28;20224;-67
2022/08/21 08:39:46;;;;;;;0.00;0.00;;;25.10;99.90;;;;;;5078695;28;20195;-67
2022/08/21 08:42:17;;;;;;;0.00;0.00;;;25.20;99.90;;;;;;5077658;28;20317;-69
2022/08/21 08:44:46;;;;;;;0.00;0.00;;;25.30;99.90;;;;;;5078268;28;20191;-68
2022/08/21 08:47:16;;;;;;;0.00;0.00;;;25.50;99.90;;;;;;5073781;28;20203;-68
2022/08/21 08:49:56;;;;;;;0.00;0.00;;;25.50;99.90;;;;;;5071098;28;20223;-68
2022/08/21 08:52:30;;;;;;;0.00;0.00;;;25.70;99.90;;;;;;5093464;28;20289;-67
2022/08/21 08:55:05;;;;;;;0.00;0.00;;;;;;;;;;5077145;28;20824;-68
2022/08/21 08:57:33;;;;;;;0.00;0.00;;;25.90;99.90;;;;;;5068733;28;20900;-68
2022/08/21 09:00:05;;;;;;;0.00;0.00;;;26.20;99.90;;;;;;5059454;28;20411;-69
2022/08/21 09:02:33;;;;;;;0.00;0.00;;;26.20;99.90;;;;;;5067985;28;20198;-67
2022/08/21 09:05:01;;;;;;;0.00;0.00;;;26.20;99.90;;;;;;5069042;28;20235;-68
2022/08/21 09:07:40;;;;;;;0.00;0.00;;;26.10;99.90;;;;;;5068132;28;20230;-69
2022/08/21 09:10:15;;;;;;;0.00;0.00;;;26.00;99.90;;;;;;5074460;28;20281;-68
2022/08/21 09:12:53;;;;;;;0.00;0.00;;;26.10;99.90;;;;;;5070281;28;20198;-70
2022/08/21 09:15:29;;;;;;;0.00;0.00;;;26.10;99.90;;;;;;5069061;28;20229;-69
2022/08/21 09:18:11;;;;;;;0.00;0.00;;;26.20;99.90;;;;;;5071399;28;20268;-68
2022/08/21 09:20:47;;;;;;;0.00;0.00;;;26.20;99.90;;;;;;5063327;28;20199;-68
2022/08/21 09:23:28;;;;;;;0.00;0.00;;;26.40;99.90;;;;;;5060790;28;20206;-68
2022/08/21 09:26:03;;;;;;;0.00;0.00;;;26.30;99.90;;;;;;5071309;28;20206;-68
2022/08/21 09:28:34;;;;;;;0.00;0.00;;;26.40;99.90;;;;;;5058305;28;20210;-68
2022/08/21 09:31:04;;;;;;;0.00;0.00;;;26.40;99.90;;;;;;5060138;28;20207;-67
2022/08/21 09:33:31;;;;;;;0.00;0.00;;;26.50;99.90;;;;;;5072639;28;20201;-68
2022/08/21 09:36:00;;;;;;;0.00;0.00;;;26.50;99.90;;;;;;5071570;28;20218;-68
2022/08/21 09:38:31;;;;;;;0.00;0.00;;;26.70;99.90;;;;;;5089780;28;20222;-68
2022/08/21 09:41:03;;;;;;;0.00;0.00;;;26.70;99.90;;;;;;5078403;28;20201;-68
2022/08/21 09:43:31;;;;;;;0.00;0.00;;;26.80;99.90;;;;;;5078547;28;20269;-68
2022/08/21 09:46:10;;;;;;;0.00;0.00;;;26.80;99.90;;;;;;5076728;28;20241;-68
2022/08/21 09:48:47;;;;;;;0.00;0.00;;;26.80;99.90;;;;;;5081032;28;20702;-67
2022/08/21 09:51:20;;;;;;;0.00;0.00;;;26.70;99.90;;;;;;5088010;28;20213;-68
2022/08/21 09:53:51;;;;;;;0.00;0.00;;;26.70;99.90;;;;;;5071781;28;20199;-68
2022/08/21 09:59:20;;;;;;;0.00;0.00;;;27.00;99.90;;;;;;5079187;28;20226;-68
2022/08/21 10:01:50;;;;;;;0.00;0.00;;;26.90;99.90;;;;;;5076971;28;20206;-68
2022/08/21 10:04:21;;;;;;;0.00;0.00;;;;;;;;;;5074822;28;20208;-67
2022/08/21 10:06:50;;;;;;;0.00;0.00;;;;;;;;;;5057248;28;20202;-68
2022/08/21 10:09:18;;;;;;;0.00;0.00;;;;;;;;;;5072100;28;20214;-67
2022/08/21 10:11:50;;;;;;;0.00;0.00;;;;;;;;;;5065797;28;20255;-68
2022/08/21 10:14:20;;;;;;;0.00;0.00;;;;;;;;;;5061100;28;20213;-68
2022/08/21 10:16:53;;;;;;;0.00;0.00;;;;;;;;;;5060972;28;20204;-68
2022/08/21 10:19:25;;;;;;;0.00;0.00;;;;;;;;;;5076690;28;20205;-68
2022/08/21 10:22:00;;;;;;;0.00;0.00;;;;;;;;;;5067505;28;20199;-67
2022/08/21 10:24:30;;;;;;;0.00;0.00;;;;;;;;;;5075823;28;20205;-67
2022/08/21 10:27:02;;;;;;;0.00;0.00;;;;;;;;;;5069284;28;20244;-66
2022/08/21 10:29:40;;;;;;;0.00;0.00;;;;;;;;;;5073916;28;20205;-67
2022/08/21 10:32:17;;;;;;;0.00;0.00;;;;;;;;;;5076502;28;20205;-68
2022/08/21 10:34:50;;;;;;;0.00;0.00;;;;;;;;;;5076431;28;20275;-68
2022/08/21 10:37:25;;;;;;;0.00;0.00;;;;;;;;;;5064408;28;20312;-68
2022/08/21 10:39:59;;;;;;;0.00;0.00;;;;;;;;;;5069046;28;20242;-69
2022/08/21 10:42:30;;;;;;;0.00;0.00;;;;;;;;;;5059377;28;20202;-68
2022/08/21 10:45:03;;;;;;;0.00;0.00;;;;;;;;;;5085417;28;20202;-69
2022/08/21 10:47:35;;;;;;;0.00;0.00;;;;;;;;;;5065634;28;20276;-68
2022/08/21 10:50:07;;;;;;;0.00;0.00;;;;;;;;;;5067656;28;20202;-69
2022/08/21 10:52:45;;;;;;;0.00;0.00;;;;;;;;;;5077530;28;20212;-68
2022/08/21 10:55:17;;;;;;;0.00;0.00;;;27.10;99.90;;;;;;5086821;28;20228;-68
2022/08/21 10:57:50;;;;;;;0.00;0.00;;;27.10;99.90;;;;;;5077098;28;20228;-68
2022/08/21 11:00:21;;;;;;;0.00;0.00;;;27.20;99.90;;;;;;5073262;28;20217;-68
2022/08/21 11:02:53;;;;;;;0.00;0.00;;;27.10;99.90;;;;;;5065402;28;20199;-67
2022/08/21 11:05:29;;;;;;;0.00;0.00;;;26.90;99.90;;;;;;5064505;28;20197;-67
2022/08/21 11:08:07;;;;;;;0.00;0.00;;;26.80;99.90;;;;;;5065958;28;20233;-67
2022/08/21 11:10:41;;;;;;;0.00;0.00;;;26.80;99.90;;;;;;5071412;28;20636;-69
2022/08/21 11:13:14;;;;;;;0.00;0.00;;;26.70;99.90;;;;;;5086367;28;20208;-68
2022/08/21 11:15:49;;;;;;;0.00;0.00;;;26.60;99.90;;;;;;5075774;28;20214;-68
2022/08/21 11:18:22;;;;;;;0.00;0.00;;;26.60;99.90;;;;;;5072027;28;20308;-69
2022/08/21 11:20:56;;;;;;;0.00;0.00;;;26.50;99.90;;;;;;5065042;28;20222;-70
2022/08/21 11:23:30;;;;;;;0.00;0.00;;;26.50;99.90;;;;;;5062479;28;20210;-68
2022/08/21 11:26:03;;;;;;;0.00;0.00;;;26.50;99.90;;;;;;5070855;28;20229;-69
2022/08/21 11:28:36;;;;;;;0.00;0.00;;;26.50;99.90;;;;;;5072560;28;20218;-68
2022/08/21 11:31:18;;;;;;;0.00;0.00;;;26.40;99.90;;;;;;5074425;28;20298;-67
2022/08/21 11:33:58;;;;;;;0.00;0.00;;;26.40;99.90;;;;;;5067194;28;20623;-68
2022/08/21 11:36:31;;;;;;;0.00;0.00;;;26.40;99.90;;;;;;5072140;28;20225;-68
2022/08/21 11:39:07;;;;;;;0.00;0.00;;;26.40;99.90;;;;;;5068233;28;20218;-68
2022/08/21 11:41:39;;;;;;;0.00;0.00;;;26.40;99.90;;;;;;5078354;28;20280;-68
2022/08/21 11:44:16;;;;;;;0.00;0.00;;;26.50;99.90;;;;;;5081726;28;20275;-68
2022/08/21 11:46:50;;;;;;;0.00;0.00;;;26.50;99.90;;;;;;5069806;28;20435;-67
2022/08/21 11:49:36;;;;;;;0.00;0.00;;;26.50;99.90;;;;;;5071599;28;20354;-68
2022/08/21 11:52:12;;;;;;;0.00;0.00;;;26.60;99.90;;;;;;5078060;28;20199;-69
2022/08/21 11:54:46;;;;;;;0.00;0.00;;;26.50;99.90;;;;;;5063565;28;20210;-68
2022/08/21 11:57:20;;;;;;;0.00;0.00;;;26.50;99.90;;;;;;5069648;28;20230;-66
2022/08/21 11:59:54;;;;;;;0.00;0.00;;;26.60;99.90;;;;;;5072608;28;20194;-67
2022/08/21 12:02:24;;;;;;;0.00;0.00;;;26.60;99.90;;;;;;5081755;28;20201;-68
2022/08/21 12:04:56;;;;;;;0.00;0.00;;;26.60;99.90;;;;;;5073810;28;20195;-67
2022/08/21 12:07:38;;;;;;;0.00;0.00;;;26.60;99.90;;;;;;5070320;28;20250;-67
2022/08/21 12:10:12;;;;;;;0.00;0.00;;;26.50;99.90;;;;;;5076263;28;20202;-68
2022/08/21 12:12:42;;;;;;;0.00;0.00;;;26.40;99.90;;;;;;5073581;28;20204;-67
2022/08/21 12:15:26;;;;;;;0.00;0.00;;;26.30;99.90;;;;;;5080277;28;20194;-68
2022/08/21 12:18:00;;;;;;;0.00;0.00;;;26.30;99.90;;;;;;5073204;28;20310;-68
2022/08/21 12:20:41;;;;;;;0.00;0.00;;;26.30;99.90;;;;;;5076416;28;20285;-69
2022/08/21 12:23:28;;;;;;;0.00;0.00;;;26.20;99.90;;;;;;5060805;28;20195;-68
2022/08/21 12:26:19;;;;;;;0.00;0.00;;;26.20;99.90;;;;;;5074446;28;20194;-69
2022/08/21 12:28:47;;;;;;;0.00;0.00;;;26.10;99.90;;;;;;5064915;28;20247;-68
2022/08/21 12:31:24;;;;;;;0.00;0.00;;;26.00;99.90;;;;;;5063778;28;20206;-68
2022/08/21 12:33:56;;;;;;;0.00;0.00;;;26.10;99.90;;;;;;5073198;28;20201;-68
2022/08/21 12:36:28;;;;;;;0.00;0.00;;;26.30;99.90;;;;;;5068131;28;20217;-68
2022/08/21 12:38:58;;;;;;;0.00;0.00;;;26.50;99.90;;;;;;5067965;28;20225;-68
2022/08/21 12:41:31;;;;;;;0.00;0.00;;;26.60;99.90;;;;;;5067186;28;20260;-69
2022/08/21 12:44:01;;;;;;;0.00;0.00;;;26.70;99.90;;;;;;5070023;28;20290;-68
2022/08/21 12:46:37;;;;;;;0.00;0.00;;;26.70;99.90;;;;;;5066557;28;20191;-69
2022/08/21 12:49:13;;;;;;;0.00;0.00;;;26.50;99.90;;;;;;5066019;28;20230;-69
2022/08/21 12:51:53;;;;;;;0.00;0.00;;;26.40;99.90;;;;;;5072506;28;20190;-69
2022/08/21 12:54:28;;;;;;;0.00;0.00;;;26.40;99.90;;;;;;5065339;28;20212;-69
2022/08/21 12:57:02;;;;;;;0.00;0.00;;;26.30;99.90;;;;;;5079212;28;20765;-68
2022/08/21 12:59:31;;;;;;;0.00;0.00;;;26.30;99.90;;;;;;5072847;28;20197;-68
2022/08/21 13:02:04;;;;;;;0.00;0.00;;;26.30;99.90;;;;;;5076703;28;20190;-68
2022/08/21 13:04:37;;;;;;;0.00;0.00;;;26.40;99.90;;;;;;5070580;28;20307;-68
2022/08/21 13:07:10;;;;;;;0.00;0.00;;;26.40;99.90;;;;;;5070674;28;20213;-69
2022/08/21 13:09:51;;;;;;;0.00;0.00;;;26.50;99.90;;;;;;5075628;28;20212;-68
2022/08/21 13:12:21;;;;;;;0.00;0.00;;;26.50;99.90;;;;;;5075727;28;20233;-68
2022/08/21 13:14:51;;;;;;;0.00;0.00;;;26.50;99.90;;;;;;5082513;28;20230;-69
2022/08/21 13:17:20;;;;;;;0.00;0.00;;;26.50;99.90;;;;;;5073825;28;20222;-68
2022/08/21 13:19:55;;;;;;;0.00;0.00;;;26.40;99.90;;;;;;5076114;28;20202;-70
2022/08/21 13:22:24;;;;;;;0.00;0.00;;;26.30;99.90;;;;;;5072604;28;20280;-68
2022/08/21 13:24:52;;;;;;;0.00;0.00;;;26.20;99.90;;;;;;5060111;28;20203;-68
2022/08/21 13:27:26;;;;;;;0.00;0.00;;;26.20;99.90;;;;;;5068159;28;20214;-68
2022/08/21 13:30:20;;;;;;;0.00;0.00;;;26.20;99.90;;;;;;5068319;28;20202;-68
2022/08/21 13:32:51;;;;;;;0.00;0.00;;;26.10;99.90;;;;;;5068695;28;20209;-68
2022/08/21 13:35:20;;;;;;;0.00;0.00;;;26.10;99.90;;;;;;5067106;28;20203;-68
2022/08/21 13:37:49;;;;;;;0.00;0.00;;;26.10;99.90;;;;;;5069998;28;20301;-68
2022/08/21 13:40:19;;;;;;;0.00;0.00;;;26.10;99.90;;;;;;5070866;28;20202;-68
2022/08/21 13:42:49;;;;;;;0.00;0.00;;;26.10;99.90;;;;;;5070375;28;20198;-69
2022/08/21 13:45:22;;;;;;;0.00;0.00;;;26.10;99.90;;;;;;5073021;28;20204;-68